Observations de surface / Québec / CYMX

Québec | Canada | États-Unis | France | UK | Europe | Ailleurs

Affichage: Infos & localisation pour CYMX | Aide pour décoder les METARs

CYMX MONTREAL MIRABEL INTL A QB CN
Raw surface observations for station CYMX
CYMX 181345Z 06008KT 330V110 3SM -SN DRSN OVC011 M07/M08 A2994 RMK SN2SC6 SLP147=
CYMX 181300Z 06007G15KT 030V100 1 1/2SM -SN DRSN OVC012 M07/M08 A2994 RMK SN5SC3 SLP145=
CYMX 181200Z 05008KT 020V090 2SM -SN DRSN OVC012 M06/M07 A2995 RMK SN2SC6 SLP148=
CYMX 181100Z 06008KT 2SM -SN DRSN OVC012 M06/M07 A2994 RMK SN3SC5 SLP147=
CYMX 181000Z VRB03KT 2SM -SN OVC011 M06/M07 A2994 RMK SN3SC5 /S02/ SLP147=
CYMX 180900Z 07008G15KT 010V110 1 1/2SM -SN OVC010 M07/M08 A2993 RMK SN3SC5 /S01/ SLP143=
CYMX 180800Z 07009G16KT 1 1/2SM -SN OVC010 M07/M08 A2994 RMK SN3SC5 SLP147=
CYMX 180700Z 04007G17KT 020V100 1 1/2SM -SN OVC011 M07/M09 A2996 RMK SN3SC5 SLP153=
CYMX 180600Z 06007G17KT 030V100 2SM -SN OVC012 M07/M08 A2998 RMK SN3SC5 /S01/ SLP159=
CYMX 180519Z 05008G16KT 010V080 2SM -SN OVC013 M07/M08 A2999 RMK SN3SC5 SLP162=
CYMX 180500Z 06006G15KT 020V090 3SM -SN OVC015 M07/M08 A3000 RMK SN2SC6 SLP165=
CYMX 180400Z 06011G20KT 5SM -SN OVC024 M07/M09 A3001 RMK SC8 SLP171=
CYMX 180300Z 06010G18KT 030V100 15SM -SN OVC031 M06/M10 A3003 RMK SC8 SLP175=
CYMX 180200Z 05010G18KT 25SM OVC080 M06/M10 A3003 RMK AC8 SLP175=
CYMX 180100Z 05008G21KT 030V090 25SM OVC092 M05/M10 A3005 RMK AC8 SLP183=
CYMX 180000Z 05009G15KT 020V080 25SM BKN140 OVC210 M04/M09 A3006 RMK AC6CI2 SLP188=
CYMX 172300Z 05008G15KT 25SM BKN140 OVC210 M04/M09 A3009 RMK AC6CI2 SLP196=
CYMX 172200Z 05007KT 25SM FEW026 BKN150 OVC210 M04/M08 A3011 RMK SC2AC5CI1 SLP205=
CYMX 172100Z 05007G16KT 020V080 45SM SCT026 BKN160 OVC210 M04/M08 A3014 RMK SC3AC3CI2 SLP213=
CYMX 172000Z 06008G15KT 010V090 45SM BKN026 BKN170 OVC250 M03/M08 A3013 RMK SC5AC2CI1 PRESFR SLP211=
CYMX 171900Z 06007KT 030V090 45SM BKN026 OVC250 M03/M08 A3017 RMK SC7CI1 SLP223=
CYMX 171800Z 07013KT 45SM BKN029 OVC120 M03/M08 A3019 RMK SC7AC1 SLP229=
CYMX 171700Z 07009KT 45SM BKN029 OVC160 M03/M08 A3021 RMK SC7AC1 SLP238=
CYMX 171600Z CCA 07010G16KT 45SM BKN030 OVC250 M02/M08 A3023 RMK SC7CI1 SLP243=
CYMX 171600Z 07010G16KT 45SM BKN033 OVC250 M02/M08 A3023 RMK SC7CI1 SLP243=
CYMX 171500Z 07009KT 45SM BKN031 OVC160 M02/M05 A3025 RMK SC7AC1 SLP249=
CYMX 171400Z 07003KT 20SM BKN033 BKN160 OVC250 M07/M07 A3025 RMK SC6AC1CI1 SLP252=